Bess — 3FHH5 — position and weather

sailwx.info

Track history (hours):
 
Tides and Currents Weather Stations Pressure Air Temp Water Temp Dewpoint Dewpoint Depression Visibility Wind Speed Wind Dir Waves Ship Positions

Bess

Last reported at 2018-Feb-21 04:11 UTC. Time now 2018-Feb-23 14:53 UTC.
Position N 15°37' E 072°13'.

Length 199 m; draft 9.1 m.

Type: Cargo ship. MMSI: 372995000.

Date/timePositionNaut miles runAvg speedWind from/ knotsBaromVisibWave heightAir tempDewpointWater temp
2018-Feb-21 04:11N 15°37' E 072°13'319.3
2018-Feb-21 04:00N 15°39' E 072°12'1119.5
2018-Feb-21 03:28N 15°49' E 072°06'5819.0
2018-Feb-21 00:26N 16°38' E 071°36'8718.6
2018-Feb-20 19:47N 17°53' E 070°50'818.9
2018-Feb-20 19:21N 18°00' E 070°46'  
2018-Feb-18 10:28N 18°54' E 071°15'1019.5
2018-Feb-18 09:56N 18°54' E 071°26'819.3
2018-Feb-18 09:31N 18°54' E 071°35'1019.0
2018-Feb-18 08:59N 18°53' E 071°45'918.9
2018-Feb-18 08:30N 18°53' E 071°55'1019.0
2018-Feb-18 07:59N 18°53' E 072°05'1019.2
2018-Feb-18 07:27N 18°52' E 072°16'919.1
2018-Feb-18 06:58N 18°52' E 072°26'918.9
2018-Feb-18 06:31N 18°51' E 072°35'5 0.2
2018-Feb-17 01:47N 18°50' E 072°40'2 6.7
2018-Feb-17 01:30N 18°50' E 072°38'4 7.4
2018-Feb-17 01:00N 18°51' E 072°34'4 8.8
2018-Feb-17 00:30N 18°51' E 072°29'510.5
2018-Feb-17 00:00N 18°51' E 072°24'713.8
2018-Feb-16 23:30N 18°52' E 072°17'814.7
2018-Feb-16 23:00N 18°53' E 072°09'918.5
2018-Feb-16 22:30N 18°53' E 071°59'918.6
2018-Feb-16 22:00N 18°53' E 071°49'1018.8
2018-Feb-16 21:28N 18°53' E 071°39'919.2
2018-Feb-16 21:00N 18°53' E 071°29'61 4.7
2018-Feb-16 08:02N 19°06' E 070°26'0 1.4
2018-Feb-16 07:53N 19°06' E 070°26'16 5.9
2018-Feb-16 05:11N 19°14' E 070°11'314.0
2018-Feb-16 05:00N 19°15' E 070°09'1415.6
2018-Feb-16 04:05N 19°22' E 069°56'515.5
2018-Feb-16 03:47N 19°24' E 069°51'515.4
2018-Feb-16 03:29N 19°26' E 069°47'715.3
2018-Feb-16 03:00N 19°30' E 069°40'815.1
2018-Feb-16 02:29N 19°34' E 069°33'715.2
2018-Feb-16 02:00N 19°37' E 069°26'715.3
2018-Feb-16 01:30N 19°41' E 069°19'  
Track history (hours):
 
Tides and Currents Weather Stations Pressure Air Temp Water Temp Dewpoint Dewpoint Depression Visibility Wind Speed Wind Dir Waves Ship Positions

Bess

Last reported at 2018-Feb-21 04:11 UTC. Time now 2018-Feb-23 14:53 UTC.
Position N 15°37' E 072°13'.

Length 199 m; draft 9.1 m.

Type: Cargo ship. MMSI: 372995000.

Date/timePositionNaut miles runAvg speedWind from/ knotsBaromVisibWave heightAir tempDewpointWater temp
2018-Feb-21 04:11N 15°37' E 072°13'319.3
2018-Feb-21 04:00N 15°39' E 072°12'1119.5
2018-Feb-21 03:28N 15°49' E 072°06'5819.0
2018-Feb-21 00:26N 16°38' E 071°36'8718.6
2018-Feb-20 19:47N 17°53' E 070°50'818.9
2018-Feb-20 19:21N 18°00' E 070°46'  
2018-Feb-18 10:28N 18°54' E 071°15'1019.5
2018-Feb-18 09:56N 18°54' E 071°26'819.3
2018-Feb-18 09:31N 18°54' E 071°35'1019.0
2018-Feb-18 08:59N 18°53' E 071°45'918.9
2018-Feb-18 08:30N 18°53' E 071°55'1019.0
2018-Feb-18 07:59N 18°53' E 072°05'1019.2
2018-Feb-18 07:27N 18°52' E 072°16'919.1
2018-Feb-18 06:58N 18°52' E 072°26'918.9
2018-Feb-18 06:31N 18°51' E 072°35'5 0.2
2018-Feb-17 01:47N 18°50' E 072°40'2 6.7
2018-Feb-17 01:30N 18°50' E 072°38'4 7.4
2018-Feb-17 01:00N 18°51' E 072°34'4 8.8
2018-Feb-17 00:30N 18°51' E 072°29'510.5
2018-Feb-17 00:00N 18°51' E 072°24'713.8
2018-Feb-16 23:30N 18°52' E 072°17'814.7
2018-Feb-16 23:00N 18°53' E 072°09'918.5
2018-Feb-16 22:30N 18°53' E 071°59'918.6
2018-Feb-16 22:00N 18°53' E 071°49'1018.8
2018-Feb-16 21:28N 18°53' E 071°39'919.2
2018-Feb-16 21:00N 18°53' E 071°29'61 4.7
2018-Feb-16 08:02N 19°06' E 070°26'0 1.4
2018-Feb-16 07:53N 19°06' E 070°26'16 5.9
2018-Feb-16 05:11N 19°14' E 070°11'314.0
2018-Feb-16 05:00N 19°15' E 070°09'1415.6
2018-Feb-16 04:05N 19°22' E 069°56'515.5
2018-Feb-16 03:47N 19°24' E 069°51'515.4
2018-Feb-16 03:29N 19°26' E 069°47'715.3
2018-Feb-16 03:00N 19°30' E 069°40'815.1
2018-Feb-16 02:29N 19°34' E 069°33'715.2
2018-Feb-16 02:00N 19°37' E 069°26'715.3
2018-Feb-16 01:30N 19°41' E 069°19'  

Dump ship's entire track history